Corbett, Oregon
Current Conditions -  °F | °C
As of 3:53 AM on Monday 24 Nov 2014 (Local Time) from KTTD Reporting Station
Overcast Overcast  
Wind Chill: 47°   Ceiling: 2100
Heat Index: 47°   Visibility: 9mi
Dew Point: 45°   Wind: 0mph
Humidity: 93%   Direction: NA
Pressure: 30.37"   Gusts: NA
Location:  45.53°N, 122.29°W
Report Text: KTTD 241153Z AUTO 00000KT 9SM OVC021 08/07 A3037 RMK AO2 SLP283 70051 T00830072 10089 20078 58000
Loading
Personal Weather Stations






























Interactive Weather Map New forecast layout! Learn more

10-Day Weather Forecast

Advertisements
Track Severe Weather on mobile